sensor_id;sensor_type;location;lat;lon;timestamp;P1;durP1;ratioP1;P2;durP2;ratioP2
68886;SDS011;55925;51.764;6.402;2023-08-17T00:00:45;4.60;;;1.65;;
68886;SDS011;55925;51.764;6.402;2023-08-17T00:03:11;4.10;;;1.73;;
68886;SDS011;55925;51.764;6.402;2023-08-17T00:05:37;5.22;;;1.80;;
68886;SDS011;55925;51.764;6.402;2023-08-17T00:08:03;5.50;;;2.20;;
68886;SDS011;55925;51.764;6.402;2023-08-17T00:10:30;5.38;;;2.25;;
68886;SDS011;55925;51.764;6.402;2023-08-17T00:12:56;4.97;;;1.77;;
68886;SDS011;55925;51.764;6.402;2023-08-17T00:15:22;4.97;;;1.75;;
68886;SDS011;55925;51.764;6.402;2023-08-17T00:17:48;5.25;;;2.13;;
68886;SDS011;55925;51.764;6.402;2023-08-17T00:20:15;4.90;;;1.70;;
68886;SDS011;55925;51.764;6.402;2023-08-17T00:22:41;5.93;;;1.90;;
68886;SDS011;55925;51.764;6.402;2023-08-17T00:25:07;7.47;;;1.95;;
68886;SDS011;55925;51.764;6.402;2023-08-17T00:27:34;6.38;;;2.30;;
68886;SDS011;55925;51.764;6.402;2023-08-17T00:30:00;6.88;;;2.50;;
68886;SDS011;55925;51.764;6.402;2023-08-17T00:32:26;5.32;;;2.05;;
68886;SDS011;55925;51.764;6.402;2023-08-17T00:34:52;5.60;;;1.90;;
68886;SDS011;55925;51.764;6.402;2023-08-17T00:37:18;6.13;;;2.25;;
68886;SDS011;55925;51.764;6.402;2023-08-17T00:39:44;8.88;;;2.50;;
68886;SDS011;55925;51.764;6.402;2023-08-17T00:42:10;6.93;;;2.15;;
68886;SDS011;55925;51.764;6.402;2023-08-17T00:44:36;12.52;;;2.72;;
68886;SDS011;55925;51.764;6.402;2023-08-17T00:47:02;8.52;;;2.30;;
68886;SDS011;55925;51.764;6.402;2023-08-17T00:49:29;5.25;;;2.50;;
68886;SDS011;55925;51.764;6.402;2023-08-17T00:51:56;4.97;;;2.42;;
68886;SDS011;55925;51.764;6.402;2023-08-17T00:54:25;6.05;;;2.83;;
68886;SDS011;55925;51.764;6.402;2023-08-17T00:56:52;9.20;;;3.20;;
68886;SDS011;55925;51.764;6.402;2023-08-17T00:59:20;7.75;;;3.35;;
68886;SDS011;55925;51.764;6.402;2023-08-17T01:01:46;8.38;;;3.13;;
68886;SDS011;55925;51.764;6.402;2023-08-17T01:04:12;8.13;;;2.97;;
68886;SDS011;55925;51.764;6.402;2023-08-17T01:06:38;7.50;;;3.10;;
68886;SDS011;55925;51.764;6.402;2023-08-17T01:09:05;7.80;;;3.22;;
68886;SDS011;55925;51.764;6.402;2023-08-17T01:11:53;7.95;;;3.30;;
68886;SDS011;55925;51.764;6.402;2023-08-17T01:14:31;7.63;;;2.90;;
68886;SDS011;55925;51.764;6.402;2023-08-17T01:17:12;10.25;;;3.28;;
68886;SDS011;55925;51.764;6.402;2023-08-17T01:19:40;5.80;;;3.20;;
68886;SDS011;55925;51.764;6.402;2023-08-17T01:22:08;8.23;;;3.38;;
68886;SDS011;55925;51.764;6.402;2023-08-17T01:24:34;7.78;;;3.55;;
68886;SDS011;55925;51.764;6.402;2023-08-17T01:27:00;8.77;;;3.78;;
68886;SDS011;55925;51.764;6.402;2023-08-17T01:29:26;7.80;;;2.90;;
68886;SDS011;55925;51.764;6.402;2023-08-17T01:32:02;8.68;;;3.55;;
68886;SDS011;55925;51.764;6.402;2023-08-17T01:34:29;8.05;;;3.45;;
68886;SDS011;55925;51.764;6.402;2023-08-17T01:36:58;9.57;;;3.60;;
68886;SDS011;55925;51.764;6.402;2023-08-17T01:39:27;8.75;;;3.95;;
68886;SDS011;55925;51.764;6.402;2023-08-17T01:41:54;9.05;;;3.72;;
68886;SDS011;55925;51.764;6.402;2023-08-17T01:44:20;10.05;;;3.45;;
68886;SDS011;55925;51.764;6.402;2023-08-17T01:46:47;8.65;;;3.25;;
68886;SDS011;55925;51.764;6.402;2023-08-17T01:49:13;5.55;;;2.88;;
68886;SDS011;55925;51.764;6.402;2023-08-17T01:51:39;6.35;;;3.55;;
68886;SDS011;55925;51.764;6.402;2023-08-17T01:54:05;7.45;;;3.38;;
68886;SDS011;55925;51.764;6.402;2023-08-17T01:56:31;7.82;;;3.15;;
68886;SDS011;55925;51.764;6.402;2023-08-17T01:58:57;7.88;;;3.00;;
68886;SDS011;55925;51.764;6.402;2023-08-17T02:01:23;8.60;;;2.90;;
68886;SDS011;55925;51.764;6.402;2023-08-17T02:03:49;8.43;;;3.08;;
68886;SDS011;55925;51.764;6.402;2023-08-17T02:06:15;5.82;;;2.63;;
68886;SDS011;55925;51.764;6.402;2023-08-17T02:08:41;8.07;;;3.05;;
68886;SDS011;55925;51.764;6.402;2023-08-17T02:11:07;7.35;;;2.53;;
68886;SDS011;55925;51.764;6.402;2023-08-17T02:13:35;5.93;;;3.67;;
68886;SDS011;55925;51.764;6.402;2023-08-17T02:16:02;6.72;;;3.08;;
68886;SDS011;55925;51.764;6.402;2023-08-17T02:18:28;8.02;;;3.90;;
68886;SDS011;55925;51.764;6.402;2023-08-17T02:20:56;6.25;;;2.92;;
68886;SDS011;55925;51.764;6.402;2023-08-17T02:23:22;7.15;;;3.58;;
68886;SDS011;55925;51.764;6.402;2023-08-17T02:25:48;17.48;;;4.38;;
68886;SDS011;55925;51.764;6.402;2023-08-17T02:28:14;8.02;;;3.30;;
68886;SDS011;55925;51.764;6.402;2023-08-17T02:30:40;6.40;;;3.05;;
68886;SDS011;55925;51.764;6.402;2023-08-17T02:33:06;8.98;;;3.65;;
68886;SDS011;55925;51.764;6.402;2023-08-17T02:35:33;7.13;;;3.97;;
68886;SDS011;55925;51.764;6.402;2023-08-17T02:37:59;7.70;;;3.55;;
68886;SDS011;55925;51.764;6.402;2023-08-17T02:40:25;10.20;;;3.75;;
68886;SDS011;55925;51.764;6.402;2023-08-17T02:42:51;8.50;;;3.30;;
68886;SDS011;55925;51.764;6.402;2023-08-17T02:45:17;7.82;;;3.60;;
68886;SDS011;55925;51.764;6.402;2023-08-17T02:47:43;6.05;;;2.63;;
68886;SDS011;55925;51.764;6.402;2023-08-17T02:50:09;6.03;;;2.95;;
68886;SDS011;55925;51.764;6.402;2023-08-17T02:52:35;10.07;;;3.40;;
68886;SDS011;55925;51.764;6.402;2023-08-17T02:55:01;7.93;;;2.80;;
68886;SDS011;55925;51.764;6.402;2023-08-17T02:57:27;8.15;;;3.65;;
68886;SDS011;55925;51.764;6.402;2023-08-17T02:59:53;6.97;;;3.20;;
68886;SDS011;55925;51.764;6.402;2023-08-17T03:02:19;5.55;;;3.05;;
68886;SDS011;55925;51.764;6.402;2023-08-17T03:04:45;7.40;;;3.20;;
68886;SDS011;55925;51.764;6.402;2023-08-17T03:07:11;10.27;;;3.35;;
68886;SDS011;55925;51.764;6.402;2023-08-17T03:09:37;6.90;;;3.08;;
68886;SDS011;55925;51.764;6.402;2023-08-17T03:12:03;8.10;;;3.13;;
68886;SDS011;55925;51.764;6.402;2023-08-17T03:14:29;6.38;;;2.97;;
68886;SDS011;55925;51.764;6.402;2023-08-17T03:16:55;8.70;;;3.60;;
68886;SDS011;55925;51.764;6.402;2023-08-17T03:19:21;8.05;;;3.30;;
68886;SDS011;55925;51.764;6.402;2023-08-17T03:21:47;6.20;;;3.22;;
68886;SDS011;55925;51.764;6.402;2023-08-17T03:24:13;6.43;;;3.30;;
68886;SDS011;55925;51.764;6.402;2023-08-17T03:26:39;7.65;;;3.38;;
68886;SDS011;55925;51.764;6.402;2023-08-17T03:29:05;7.63;;;3.20;;
68886;SDS011;55925;51.764;6.402;2023-08-17T03:31:33;8.15;;;3.17;;
68886;SDS011;55925;51.764;6.402;2023-08-17T03:33:59;7.43;;;2.80;;
68886;SDS011;55925;51.764;6.402;2023-08-17T03:36:26;6.82;;;3.58;;
68886;SDS011;55925;51.764;6.402;2023-08-17T03:38:52;9.25;;;3.85;;
68886;SDS011;55925;51.764;6.402;2023-08-17T03:41:18;7.40;;;3.70;;
68886;SDS011;55925;51.764;6.402;2023-08-17T03:43:44;7.18;;;3.30;;
68886;SDS011;55925;51.764;6.402;2023-08-17T03:46:10;6.03;;;3.22;;
68886;SDS011;55925;51.764;6.402;2023-08-17T03:48:36;10.30;;;4.10;;
68886;SDS011;55925;51.764;6.402;2023-08-17T03:51:02;10.10;;;3.97;;
68886;SDS011;55925;51.764;6.402;2023-08-17T03:53:29;9.07;;;3.47;;
68886;SDS011;55925;51.764;6.402;2023-08-17T03:55:55;7.97;;;3.38;;
68886;SDS011;55925;51.764;6.402;2023-08-17T03:58:21;6.32;;;3.55;;
68886;SDS011;55925;51.764;6.402;2023-08-17T04:00:50;10.30;;;3.97;;
68886;SDS011;55925;51.764;6.402;2023-08-17T04:03:17;7.50;;;3.30;;
68886;SDS011;55925;51.764;6.402;2023-08-17T04:05:43;7.07;;;3.15;;
68886;SDS011;55925;51.764;6.402;2023-08-17T04:08:09;9.88;;;3.67;;
68886;SDS011;55925;51.764;6.402;2023-08-17T04:10:35;8.40;;;3.38;;
68886;SDS011;55925;51.764;6.402;2023-08-17T04:13:01;8.35;;;3.50;;
68886;SDS011;55925;51.764;6.402;2023-08-17T04:15:27;6.75;;;3.35;;
68886;SDS011;55925;51.764;6.402;2023-08-17T04:17:53;9.00;;;3.47;;
68886;SDS011;55925;51.764;6.402;2023-08-17T04:20:19;7.60;;;3.35;;
68886;SDS011;55925;51.764;6.402;2023-08-17T04:22:45;10.07;;;4.00;;
68886;SDS011;55925;51.764;6.402;2023-08-17T04:25:12;9.40;;;3.67;;
68886;SDS011;55925;51.764;6.402;2023-08-17T04:27:38;7.95;;;3.95;;
68886;SDS011;55925;51.764;6.402;2023-08-17T04:30:05;9.48;;;4.00;;
68886;SDS011;55925;51.764;6.402;2023-08-17T04:32:31;8.88;;;3.42;;
68886;SDS011;55925;51.764;6.402;2023-08-17T04:34:57;7.88;;;3.25;;
68886;SDS011;55925;51.764;6.402;2023-08-17T04:37:23;12.85;;;4.07;;
68886;SDS011;55925;51.764;6.402;2023-08-17T04:39:49;8.57;;;3.65;;
68886;SDS011;55925;51.764;6.402;2023-08-17T04:42:15;9.43;;;4.10;;
68886;SDS011;55925;51.764;6.402;2023-08-17T04:44:41;6.85;;;3.63;;
68886;SDS011;55925;51.764;6.402;2023-08-17T04:47:07;8.48;;;3.67;;
68886;SDS011;55925;51.764;6.402;2023-08-17T04:49:33;9.10;;;3.95;;
68886;SDS011;55925;51.764;6.402;2023-08-17T04:51:59;9.55;;;3.72;;
68886;SDS011;55925;51.764;6.402;2023-08-17T04:54:25;7.75;;;3.80;;
68886;SDS011;55925;51.764;6.402;2023-08-17T04:56:51;8.02;;;3.15;;
68886;SDS011;55925;51.764;6.402;2023-08-17T04:59:17;9.57;;;3.75;;
68886;SDS011;55925;51.764;6.402;2023-08-17T05:01:43;7.47;;;3.85;;
68886;SDS011;55925;51.764;6.402;2023-08-17T05:04:09;9.57;;;3.75;;
68886;SDS011;55925;51.764;6.402;2023-08-17T05:06:35;6.90;;;3.45;;
68886;SDS011;55925;51.764;6.402;2023-08-17T05:09:03;9.23;;;3.53;;
68886;SDS011;55925;51.764;6.402;2023-08-17T05:11:30;8.77;;;3.40;;
68886;SDS011;55925;51.764;6.402;2023-08-17T05:13:56;7.70;;;3.20;;
68886;SDS011;55925;51.764;6.402;2023-08-17T05:16:22;8.35;;;3.45;;
68886;SDS011;55925;51.764;6.402;2023-08-17T05:18:48;7.90;;;3.50;;
68886;SDS011;55925;51.764;6.402;2023-08-17T05:21:14;6.68;;;3.03;;
68886;SDS011;55925;51.764;6.402;2023-08-17T05:23:40;9.27;;;3.22;;
68886;SDS011;55925;51.764;6.402;2023-08-17T05:26:06;9.15;;;3.47;;
68886;SDS011;55925;51.764;6.402;2023-08-17T05:28:33;8.18;;;3.47;;
68886;SDS011;55925;51.764;6.402;2023-08-17T05:31:04;7.90;;;3.45;;
68886;SDS011;55925;51.764;6.402;2023-08-17T05:33:30;7.80;;;3.55;;
68886;SDS011;55925;51.764;6.402;2023-08-17T05:35:56;7.97;;;3.05;;
68886;SDS011;55925;51.764;6.402;2023-08-17T05:38:22;8.65;;;3.30;;
68886;SDS011;55925;51.764;6.402;2023-08-17T05:40:49;7.75;;;3.30;;
68886;SDS011;55925;51.764;6.402;2023-08-17T05:43:19;9.25;;;3.38;;
68886;SDS011;55925;51.764;6.402;2023-08-17T05:45:45;8.00;;;3.05;;
68886;SDS011;55925;51.764;6.402;2023-08-17T05:48:11;6.93;;;2.85;;
68886;SDS011;55925;51.764;6.402;2023-08-17T05:50:40;8.82;;;3.30;;
68886;SDS011;55925;51.764;6.402;2023-08-17T05:53:06;10.82;;;3.10;;
68886;SDS011;55925;51.764;6.402;2023-08-17T05:55:32;6.75;;;3.08;;
68886;SDS011;55925;51.764;6.402;2023-08-17T05:57:58;6.93;;;3.30;;
68886;SDS011;55925;51.764;6.402;2023-08-17T06:00:24;5.22;;;2.67;;
68886;SDS011;55925;51.764;6.402;2023-08-17T06:02:50;10.38;;;2.78;;
68886;SDS011;55925;51.764;6.402;2023-08-17T06:05:17;7.32;;;3.42;;
68886;SDS011;55925;51.764;6.402;2023-08-17T06:07:43;8.75;;;2.92;;
68886;SDS011;55925;51.764;6.402;2023-08-17T06:10:09;7.63;;;2.80;;
68886;SDS011;55925;51.764;6.402;2023-08-17T06:12:36;8.00;;;3.00;;
68886;SDS011;55925;51.764;6.402;2023-08-17T06:15:02;5.95;;;2.72;;
68886;SDS011;55925;51.764;6.402;2023-08-17T06:17:28;9.13;;;3.45;;
68886;SDS011;55925;51.764;6.402;2023-08-17T06:19:54;8.40;;;3.63;;
68886;SDS011;55925;51.764;6.402;2023-08-17T06:22:20;6.75;;;2.78;;
68886;SDS011;55925;51.764;6.402;2023-08-17T06:24:46;7.82;;;2.75;;
68886;SDS011;55925;51.764;6.402;2023-08-17T06:27:15;7.50;;;2.95;;
68886;SDS011;55925;51.764;6.402;2023-08-17T06:29:41;7.05;;;3.10;;
68886;SDS011;55925;51.764;6.402;2023-08-17T06:32:08;7.57;;;3.47;;
68886;SDS011;55925;51.764;6.402;2023-08-17T06:34:34;7.18;;;3.33;;
68886;SDS011;55925;51.764;6.402;2023-08-17T06:37:02;5.35;;;2.83;;
68886;SDS011;55925;51.764;6.402;2023-08-17T06:39:28;8.05;;;3.13;;
68886;SDS011;55925;51.764;6.402;2023-08-17T06:41:54;8.82;;;3.08;;
68886;SDS011;55925;51.764;6.402;2023-08-17T06:44:20;9.57;;;2.65;;
68886;SDS011;55925;51.764;6.402;2023-08-17T06:46:46;6.95;;;2.95;;
68886;SDS011;55925;51.764;6.402;2023-08-17T06:49:12;7.15;;;3.17;;
68886;SDS011;55925;51.764;6.402;2023-08-17T06:51:38;7.75;;;2.90;;
68886;SDS011;55925;51.764;6.402;2023-08-17T06:54:06;6.53;;;2.78;;
68886;SDS011;55925;51.764;6.402;2023-08-17T06:56:32;6.50;;;2.60;;
68886;SDS011;55925;51.764;6.402;2023-08-17T06:58:58;6.28;;;3.13;;
68886;SDS011;55925;51.764;6.402;2023-08-17T07:01:24;5.78;;;2.83;;
68886;SDS011;55925;51.764;6.402;2023-08-17T07:03:51;6.75;;;2.83;;
68886;SDS011;55925;51.764;6.402;2023-08-17T07:06:17;7.47;;;3.35;;
68886;SDS011;55925;51.764;6.402;2023-08-17T07:08:44;8.65;;;3.20;;
68886;SDS011;55925;51.764;6.402;2023-08-17T07:11:11;6.57;;;3.20;;
68886;SDS011;55925;51.764;6.402;2023-08-17T07:13:37;6.18;;;3.55;;
68886;SDS011;55925;51.764;6.402;2023-08-17T07:16:03;7.45;;;3.25;;
68886;SDS011;55925;51.764;6.402;2023-08-17T07:18:29;7.53;;;2.95;;
68886;SDS011;55925;51.764;6.402;2023-08-17T07:20:55;8.02;;;2.88;;
68886;SDS011;55925;51.764;6.402;2023-08-17T07:23:21;6.07;;;3.20;;
68886;SDS011;55925;51.764;6.402;2023-08-17T07:25:47;11.63;;;3.03;;
68886;SDS011;55925;51.764;6.402;2023-08-17T07:28:14;7.90;;;2.90;;
68886;SDS011;55925;51.764;6.402;2023-08-17T07:30:40;8.68;;;3.20;;
68886;SDS011;55925;51.764;6.402;2023-08-17T07:33:06;6.22;;;2.90;;
68886;SDS011;55925;51.764;6.402;2023-08-17T07:35:32;9.18;;;3.15;;
68886;SDS011;55925;51.764;6.402;2023-08-17T07:37:59;8.95;;;3.28;;
68886;SDS011;55925;51.764;6.402;2023-08-17T07:40:25;7.40;;;3.50;;
68886;SDS011;55925;51.764;6.402;2023-08-17T07:42:51;6.53;;;2.92;;
68886;SDS011;55925;51.764;6.402;2023-08-17T07:45:17;9.45;;;2.90;;
68886;SDS011;55925;51.764;6.402;2023-08-17T07:47:44;11.00;;;3.45;;
68886;SDS011;55925;51.764;6.402;2023-08-17T07:50:10;8.45;;;3.55;;
68886;SDS011;55925;51.764;6.402;2023-08-17T07:52:36;6.28;;;3.25;;
68886;SDS011;55925;51.764;6.402;2023-08-17T07:55:02;8.10;;;3.50;;
68886;SDS011;55925;51.764;6.402;2023-08-17T07:57:28;6.10;;;3.00;;
68886;SDS011;55925;51.764;6.402;2023-08-17T07:59:54;9.18;;;3.28;;
68886;SDS011;55925;51.764;6.402;2023-08-17T08:02:20;7.35;;;3.30;;
68886;SDS011;55925;51.764;6.402;2023-08-17T08:04:46;11.23;;;3.00;;
68886;SDS011;55925;51.764;6.402;2023-08-17T08:07:12;6.93;;;3.05;;
68886;SDS011;55925;51.764;6.402;2023-08-17T08:09:38;6.22;;;3.10;;
68886;SDS011;55925;51.764;6.402;2023-08-17T08:12:05;7.53;;;3.38;;
68886;SDS011;55925;51.764;6.402;2023-08-17T08:14:32;7.88;;;3.40;;
68886;SDS011;55925;51.764;6.402;2023-08-17T08:16:58;7.55;;;3.38;;
68886;SDS011;55925;51.764;6.402;2023-08-17T08:19:24;7.97;;;3.53;;
68886;SDS011;55925;51.764;6.402;2023-08-17T08:21:50;9.18;;;3.47;;
68886;SDS011;55925;51.764;6.402;2023-08-17T08:24:16;7.47;;;3.15;;
68886;SDS011;55925;51.764;6.402;2023-08-17T08:26:42;9.38;;;3.20;;
68886;SDS011;55925;51.764;6.402;2023-08-17T08:29:08;7.10;;;3.50;;
68886;SDS011;55925;51.764;6.402;2023-08-17T08:31:34;10.32;;;2.88;;
68886;SDS011;55925;51.764;6.402;2023-08-17T08:34:00;8.18;;;3.35;;
68886;SDS011;55925;51.764;6.402;2023-08-17T08:36:26;6.95;;;3.08;;
68886;SDS011;55925;51.764;6.402;2023-08-17T08:38:52;9.27;;;3.50;;
68886;SDS011;55925;51.764;6.402;2023-08-17T08:41:18;6.35;;;3.10;;
68886;SDS011;55925;51.764;6.402;2023-08-17T08:43:45;6.53;;;2.85;;
68886;SDS011;55925;51.764;6.402;2023-08-17T08:46:11;5.47;;;2.90;;
68886;SDS011;55925;51.764;6.402;2023-08-17T08:48:37;7.47;;;3.40;;
68886;SDS011;55925;51.764;6.402;2023-08-17T08:51:06;8.93;;;4.15;;
68886;SDS011;55925;51.764;6.402;2023-08-17T08:53:37;11.15;;;4.03;;
68886;SDS011;55925;51.764;6.402;2023-08-17T08:56:04;7.97;;;3.90;;
68886;SDS011;55925;51.764;6.402;2023-08-17T08:58:31;8.98;;;3.75;;
68886;SDS011;55925;51.764;6.402;2023-08-17T09:00:58;8.20;;;4.13;;
68886;SDS011;55925;51.764;6.402;2023-08-17T09:03:26;11.93;;;3.67;;
68886;SDS011;55925;51.764;6.402;2023-08-17T09:05:52;9.63;;;3.95;;
68886;SDS011;55925;51.764;6.402;2023-08-17T09:08:20;10.10;;;3.95;;
68886;SDS011;55925;51.764;6.402;2023-08-17T09:10:47;9.18;;;3.67;;
68886;SDS011;55925;51.764;6.402;2023-08-17T09:13:13;7.55;;;3.85;;
68886;SDS011;55925;51.764;6.402;2023-08-17T09:15:39;6.53;;;3.80;;
68886;SDS011;55925;51.764;6.402;2023-08-17T09:18:05;8.25;;;3.97;;
68886;SDS011;55925;51.764;6.402;2023-08-17T09:20:42;8.70;;;3.65;;
68886;SDS011;55925;51.764;6.402;2023-08-17T09:25:39;8.82;;;3.63;;
68886;SDS011;55925;51.764;6.402;2023-08-17T09:28:15;9.45;;;3.47;;
68886;SDS011;55925;51.764;6.402;2023-08-17T09:33:17;10.88;;;3.65;;
68886;SDS011;55925;51.764;6.402;2023-08-17T09:35:43;7.53;;;3.30;;
68886;SDS011;55925;51.764;6.402;2023-08-17T09:38:09;8.32;;;3.75;;
68886;SDS011;55925;51.764;6.402;2023-08-17T09:40:35;8.40;;;4.10;;
68886;SDS011;55925;51.764;6.402;2023-08-17T09:43:02;8.27;;;3.90;;
68886;SDS011;55925;51.764;6.402;2023-08-17T09:45:28;10.90;;;4.32;;
68886;SDS011;55925;51.764;6.402;2023-08-17T09:47:58;9.02;;;4.30;;
68886;SDS011;55925;51.764;6.402;2023-08-17T09:50:24;9.13;;;3.85;;
68886;SDS011;55925;51.764;6.402;2023-08-17T09:52:53;9.48;;;4.32;;
68886;SDS011;55925;51.764;6.402;2023-08-17T09:55:22;9.45;;;3.92;;
68886;SDS011;55925;51.764;6.402;2023-08-17T09:57:52;10.55;;;4.50;;
68886;SDS011;55925;51.764;6.402;2023-08-17T10:00:19;7.85;;;4.30;;
68886;SDS011;55925;51.764;6.402;2023-08-17T10:02:47;10.60;;;4.20;;
68886;SDS011;55925;51.764;6.402;2023-08-17T10:05:23;7.60;;;4.22;;
68886;SDS011;55925;51.764;6.402;2023-08-17T10:07:53;16.98;;;5.32;;
68886;SDS011;55925;51.764;6.402;2023-08-17T10:10:22;9.77;;;4.72;;
68886;SDS011;55925;51.764;6.402;2023-08-17T10:21:20;10.52;;;5.35;;
68886;SDS011;55925;51.764;6.402;2023-08-17T10:23:47;8.88;;;4.57;;
68886;SDS011;55925;51.764;6.402;2023-08-17T10:26:13;11.35;;;5.22;;
68886;SDS011;55925;51.764;6.402;2023-08-17T10:28:39;12.43;;;5.65;;
68886;SDS011;55925;51.764;6.402;2023-08-17T10:31:06;12.48;;;5.78;;
68886;SDS011;55925;51.764;6.402;2023-08-17T10:33:32;12.57;;;5.60;;
68886;SDS011;55925;51.764;6.402;2023-08-17T10:35:59;13.63;;;5.47;;
68886;SDS011;55925;51.764;6.402;2023-08-17T10:38:26;8.68;;;5.10;;
68886;SDS011;55925;51.764;6.402;2023-08-17T10:41:08;9.32;;;5.10;;
68886;SDS011;55925;51.764;6.402;2023-08-17T10:43:53;11.32;;;5.57;;
68886;SDS011;55925;51.764;6.402;2023-08-17T10:46:19;10.23;;;5.50;;
68886;SDS011;55925;51.764;6.402;2023-08-17T10:48:45;9.55;;;4.65;;
68886;SDS011;55925;51.764;6.402;2023-08-17T10:51:11;7.93;;;4.57;;
68886;SDS011;55925;51.764;6.402;2023-08-17T10:53:44;10.73;;;4.97;;
68886;SDS011;55925;51.764;6.402;2023-08-17T10:56:12;9.23;;;5.47;;
68886;SDS011;55925;51.764;6.402;2023-08-17T10:58:38;11.27;;;5.75;;
68886;SDS011;55925;51.764;6.402;2023-08-17T11:01:06;11.10;;;5.93;;
68886;SDS011;55925;51.764;6.402;2023-08-17T11:03:32;10.18;;;5.13;;
68886;SDS011;55925;51.764;6.402;2023-08-17T11:05:58;11.05;;;5.47;;
68886;SDS011;55925;51.764;6.402;2023-08-17T11:08:39;12.65;;;5.63;;
68886;SDS011;55925;51.764;6.402;2023-08-17T11:11:06;10.00;;;5.13;;
68886;SDS011;55925;51.764;6.402;2023-08-17T11:13:33;11.55;;;5.80;;
68886;SDS011;55925;51.764;6.402;2023-08-17T11:16:00;11.25;;;5.40;;
68886;SDS011;55925;51.764;6.402;2023-08-17T11:18:26;14.13;;;6.43;;
68886;SDS011;55925;51.764;6.402;2023-08-17T11:20:53;12.65;;;6.05;;
68886;SDS011;55925;51.764;6.402;2023-08-17T11:23:19;13.63;;;6.20;;
68886;SDS011;55925;51.764;6.402;2023-08-17T11:25:46;11.55;;;5.32;;
68886;SDS011;55925;51.764;6.402;2023-08-17T11:28:12;12.27;;;5.32;;
68886;SDS011;55925;51.764;6.402;2023-08-17T11:30:39;10.63;;;5.50;;
68886;SDS011;55925;51.764;6.402;2023-08-17T11:33:06;7.97;;;5.32;;
68886;SDS011;55925;51.764;6.402;2023-08-17T11:35:32;11.68;;;5.65;;
68886;SDS011;55925;51.764;6.402;2023-08-17T11:37:59;11.40;;;5.28;;
68886;SDS011;55925;51.764;6.402;2023-08-17T11:40:25;10.13;;;5.10;;
68886;SDS011;55925;51.764;6.402;2023-08-17T11:42:51;9.27;;;4.80;;
68886;SDS011;55925;51.764;6.402;2023-08-17T11:45:18;11.45;;;5.07;;
68886;SDS011;55925;51.764;6.402;2023-08-17T11:47:46;10.90;;;5.40;;
68886;SDS011;55925;51.764;6.402;2023-08-17T11:50:12;9.43;;;5.57;;
68886;SDS011;55925;51.764;6.402;2023-08-17T11:52:39;16.38;;;5.57;;
68886;SDS011;55925;51.764;6.402;2023-08-17T11:55:05;9.90;;;5.63;;
68886;SDS011;55925;51.764;6.402;2023-08-17T11:57:37;13.18;;;5.10;;
68886;SDS011;55925;51.764;6.402;2023-08-17T12:00:04;11.18;;;5.68;;
68886;SDS011;55925;51.764;6.402;2023-08-17T12:02:31;9.40;;;5.72;;
68886;SDS011;55925;51.764;6.402;2023-08-17T12:05:02;11.55;;;5.40;;
68886;SDS011;55925;51.764;6.402;2023-08-17T12:07:31;10.13;;;5.47;;
68886;SDS011;55925;51.764;6.402;2023-08-17T12:09:58;9.57;;;4.95;;
68886;SDS011;55925;51.764;6.402;2023-08-17T12:12:24;10.95;;;5.68;;
68886;SDS011;55925;51.764;6.402;2023-08-17T12:14:50;11.77;;;5.22;;
68886;SDS011;55925;51.764;6.402;2023-08-17T12:17:16;10.15;;;5.63;;
68886;SDS011;55925;51.764;6.402;2023-08-17T12:19:43;13.35;;;6.43;;
68886;SDS011;55925;51.764;6.402;2023-08-17T12:22:09;10.55;;;5.60;;
68886;SDS011;55925;51.764;6.402;2023-08-17T12:24:35;10.43;;;5.60;;
68886;SDS011;55925;51.764;6.402;2023-08-17T12:27:05;9.70;;;5.53;;
68886;SDS011;55925;51.764;6.402;2023-08-17T12:29:31;10.02;;;5.38;;
68886;SDS011;55925;51.764;6.402;2023-08-17T12:31:57;10.73;;;5.85;;
68886;SDS011;55925;51.764;6.402;2023-08-17T12:34:24;9.07;;;5.65;;
68886;SDS011;55925;51.764;6.402;2023-08-17T12:36:50;9.57;;;5.35;;
68886;SDS011;55925;51.764;6.402;2023-08-17T12:39:16;10.98;;;5.63;;
68886;SDS011;55925;51.764;6.402;2023-08-17T12:41:42;10.07;;;5.60;;
68886;SDS011;55925;51.764;6.402;2023-08-17T12:44:09;12.98;;;6.03;;
68886;SDS011;55925;51.764;6.402;2023-08-17T12:46:39;9.27;;;5.32;;
68886;SDS011;55925;51.764;6.402;2023-08-17T12:49:05;11.40;;;6.65;;
68886;SDS011;55925;51.764;6.402;2023-08-17T12:51:31;11.57;;;6.32;;
68886;SDS011;55925;51.764;6.402;2023-08-17T12:53:57;9.75;;;5.78;;
68886;SDS011;55925;51.764;6.402;2023-08-17T12:56:23;11.45;;;6.10;;
68886;SDS011;55925;51.764;6.402;2023-08-17T12:58:49;10.98;;;5.93;;
68886;SDS011;55925;51.764;6.402;2023-08-17T13:01:15;11.70;;;6.68;;
68886;SDS011;55925;51.764;6.402;2023-08-17T13:03:41;12.00;;;6.32;;
68886;SDS011;55925;51.764;6.402;2023-08-17T13:06:08;10.27;;;5.88;;
68886;SDS011;55925;51.764;6.402;2023-08-17T13:08:34;10.23;;;6.15;;
68886;SDS011;55925;51.764;6.402;2023-08-17T13:11:00;12.65;;;6.35;;
68886;SDS011;55925;51.764;6.402;2023-08-17T13:13:26;10.98;;;5.43;;
68886;SDS011;55925;51.764;6.402;2023-08-17T13:15:53;9.60;;;5.53;;
68886;SDS011;55925;51.764;6.402;2023-08-17T13:18:19;13.63;;;7.88;;
68886;SDS011;55925;51.764;6.402;2023-08-17T13:20:45;11.60;;;6.53;;
68886;SDS011;55925;51.764;6.402;2023-08-17T13:23:11;10.13;;;6.20;;
68886;SDS011;55925;51.764;6.402;2023-08-17T13:25:37;10.15;;;5.70;;
68886;SDS011;55925;51.764;6.402;2023-08-17T13:28:03;10.77;;;5.80;;
68886;SDS011;55925;51.764;6.402;2023-08-17T13:30:29;9.68;;;6.05;;
68886;SDS011;55925;51.764;6.402;2023-08-17T13:32:55;12.30;;;6.80;;
68886;SDS011;55925;51.764;6.402;2023-08-17T13:35:21;13.85;;;6.30;;
68886;SDS011;55925;51.764;6.402;2023-08-17T13:37:56;12.27;;;6.40;;
68886;SDS011;55925;51.764;6.402;2023-08-17T13:40:22;12.88;;;6.43;;
68886;SDS011;55925;51.764;6.402;2023-08-17T13:42:48;10.50;;;5.72;;
68886;SDS011;55925;51.764;6.402;2023-08-17T13:45:14;12.20;;;6.10;;
68886;SDS011;55925;51.764;6.402;2023-08-17T13:47:40;11.63;;;6.90;;
68886;SDS011;55925;51.764;6.402;2023-08-17T13:50:25;11.00;;;5.90;;
68886;SDS011;55925;51.764;6.402;2023-08-17T13:52:51;10.73;;;6.22;;
68886;SDS011;55925;51.764;6.402;2023-08-17T13:55:17;11.82;;;6.03;;
68886;SDS011;55925;51.764;6.402;2023-08-17T13:57:43;11.45;;;6.55;;
68886;SDS011;55925;51.764;6.402;2023-08-17T14:00:09;15.88;;;7.50;;
68886;SDS011;55925;51.764;6.402;2023-08-17T14:02:35;11.18;;;6.85;;
68886;SDS011;55925;51.764;6.402;2023-08-17T14:05:01;14.05;;;7.47;;
68886;SDS011;55925;51.764;6.402;2023-08-17T14:07:27;10.88;;;6.65;;
68886;SDS011;55925;51.764;6.402;2023-08-17T14:09:53;10.95;;;6.47;;
68886;SDS011;55925;51.764;6.402;2023-08-17T14:12:19;11.93;;;6.63;;
68886;SDS011;55925;51.764;6.402;2023-08-17T14:14:45;13.00;;;6.63;;
68886;SDS011;55925;51.764;6.402;2023-08-17T14:17:11;12.13;;;6.50;;
68886;SDS011;55925;51.764;6.402;2023-08-17T14:19:37;13.27;;;7.65;;
68886;SDS011;55925;51.764;6.402;2023-08-17T14:22:03;14.88;;;7.63;;
68886;SDS011;55925;51.764;6.402;2023-08-17T14:24:29;14.02;;;7.82;;
68886;SDS011;55925;51.764;6.402;2023-08-17T14:26:56;12.40;;;7.32;;
68886;SDS011;55925;51.764;6.402;2023-08-17T14:29:23;13.38;;;7.55;;
68886;SDS011;55925;51.764;6.402;2023-08-17T14:31:49;14.55;;;7.65;;
68886;SDS011;55925;51.764;6.402;2023-08-17T14:34:15;14.25;;;7.97;;
68886;SDS011;55925;51.764;6.402;2023-08-17T14:36:41;15.93;;;7.80;;
68886;SDS011;55925;51.764;6.402;2023-08-17T14:39:07;13.23;;;6.57;;
68886;SDS011;55925;51.764;6.402;2023-08-17T14:41:33;15.25;;;7.30;;
68886;SDS011;55925;51.764;6.402;2023-08-17T14:43:59;13.43;;;7.35;;
68886;SDS011;55925;51.764;6.402;2023-08-17T14:46:25;12.45;;;7.60;;
68886;SDS011;55925;51.764;6.402;2023-08-17T14:48:51;13.85;;;7.68;;
68886;SDS011;55925;51.764;6.402;2023-08-17T14:51:36;13.25;;;7.47;;
68886;SDS011;55925;51.764;6.402;2023-08-17T14:54:13;16.90;;;8.80;;